Time;durP1;ratioP1;P1;durP2;ratioP2;P2;SDS_P1;SDS_P2;PMS_P1;PMS_P2;Temp;Humidity;BMP_temperature;BMP_pressure;BME280_temperature;BME280_humidity;BME280_pressure;Samples;Min_cycle;Max_cycle;Signal;HPM_P1;HPM_P2
2023/10/07 00:02:15;;;;;;;15.02;4.93;;;16.20;99.90;;;;;;5082947;28;20046;-72
2023/10/07 00:04:42;;;;;;;15.35;5.13;;;16.20;99.90;;;;;;5073301;28;20032;-72
2023/10/07 00:07:10;;;;;;;14.50;5.13;;;16.20;99.90;;;;;;5078348;28;20425;-72
2023/10/07 00:09:43;;;;;;;21.83;5.47;;;16.20;99.90;;;;;;5093160;28;20085;-72
2023/10/07 00:12:14;;;;;;;14.52;4.68;;;16.20;99.90;;;;;;5075402;28;20069;-72
2023/10/07 00:14:43;;;;;;;17.42;5.20;;;16.20;99.90;;;;;;5096161;28;20038;-72
2023/10/07 00:17:16;;;;;;;16.88;5.05;;;16.20;99.90;;;;;;5074633;28;20086;-72
2023/10/07 00:19:46;;;;;;;16.15;5.57;;;16.30;99.90;;;;;;5078602;28;20102;-72
2023/10/07 00:22:19;;;;;;;15.10;5.10;;;16.30;99.90;;;;;;5099146;28;20036;-72
2023/10/07 00:24:48;;;;;;;17.70;5.13;;;16.30;99.90;;;;;;5097920;28;20031;-72
2023/10/07 00:27:26;;;;;;;22.73;6.15;;;16.30;99.90;;;;;;5077127;28;20071;-72
2023/10/07 00:29:54;;;;;;;18.00;6.35;;;16.30;99.90;;;;;;5073250;28;20440;-72
2023/10/07 00:32:26;;;;;;;16.52;5.40;;;16.20;99.90;;;;;;5100871;28;20100;-72
2023/10/07 00:34:54;;;;;;;21.92;5.60;;;16.30;99.90;;;;;;5083342;28;20040;-72
2023/10/07 00:37:20;;;;;;;20.60;5.15;;;16.30;99.90;;;;;;5074462;28;20028;-72
2023/10/07 00:39:46;;;;;;;16.77;5.65;;;16.30;99.90;;;;;;5093482;28;20040;-72
2023/10/07 00:42:12;;;;;;;17.00;5.93;;;16.40;99.90;;;;;;5091308;28;20088;-72
2023/10/07 00:44:39;;;;;;;17.85;5.45;;;16.40;99.90;;;;;;5113065;28;20040;-72
2023/10/07 00:49:40;;;;;;;18.83;5.72;;;16.40;99.90;;;;;;5081787;28;20050;-72
2023/10/07 00:52:24;;;;;;;17.25;5.40;;;16.40;99.90;;;;;;5085824;28;20044;-72
2023/10/07 00:54:57;;;;;;;18.48;5.85;;;16.40;99.90;;;;;;5090964;28;20079;-72
2023/10/07 00:59:59;;;;;;;15.10;5.18;;;16.40;99.90;;;;;;5085699;28;20051;-72
2023/10/07 01:02:31;;;;;;;16.17;6.00;;;16.40;99.90;;;;;;5094471;28;20398;-71
2023/10/07 01:05:09;;;;;;;19.60;6.40;;;16.40;99.90;;;;;;5084609;28;20063;-71
2023/10/07 01:07:35;;;;;;;18.58;5.95;;;16.50;99.90;;;;;;5081928;28;20508;-71
2023/10/07 01:10:13;;;;;;;11.98;5.43;;;16.50;99.90;;;;;;5089789;28;20039;-71
2023/10/07 01:12:42;;;;;;;16.98;5.85;;;16.50;99.90;;;;;;5086643;28;20401;-71
2023/10/07 01:15:26;;;;;;;16.33;5.38;;;16.60;99.90;;;;;;5094284;28;20075;-72
2023/10/07 01:17:54;;;;;;;20.42;5.93;;;16.60;99.90;;;;;;5088106;28;20031;-72
2023/10/07 01:23:06;;;;;;;15.57;5.20;;;16.60;99.90;;;;;;5085044;28;20048;-71
2023/10/07 01:25:44;;;;;;;17.20;5.85;;;16.60;99.90;;;;;;5068824;28;20088;-71
2023/10/07 01:28:14;;;;;;;19.83;5.85;;;16.70;99.90;;;;;;5088347;28;20143;-75
2023/10/07 01:30:47;;;;;;;24.13;5.55;;;16.70;99.90;;;;;;5074274;28;20063;-74
2023/10/07 01:35:39;;;;;;;16.70;5.45;;;16.70;99.90;;;;;;5112000;28;20139;-72
2023/10/07 01:38:08;;;;;;;18.10;6.18;;;16.70;99.90;;;;;;5090527;28;20057;-72
2023/10/07 01:43:15;;;;;;;;;;;16.60;99.90;;;;;;5085553;28;20044;-71
2023/10/07 01:45:41;;;;;;;15.75;5.70;;;16.70;99.90;;;;;;5090194;28;19920;-72
2023/10/07 01:48:07;;;;;;;18.38;5.88;;;16.60;99.90;;;;;;5091027;28;20112;-72
2023/10/07 01:50:40;;;;;;;18.33;5.93;;;16.60;99.90;;;;;;5085157;28;20051;-72
2023/10/07 01:53:06;;;;;;;19.65;6.30;;;16.70;99.90;;;;;;5087998;28;20957;-71
2023/10/07 01:55:36;;;;;;;18.50;6.45;;;16.60;99.90;;;;;;5104936;28;20365;-71
2023/10/07 01:58:02;;;;;;;20.50;6.18;;;16.70;99.90;;;;;;5084832;28;20043;-71
2023/10/07 02:01:28;;;;;;;16.75;6.55;;;16.70;99.90;;;;;;5115040;28;20097;-71
2023/10/07 02:03:23;;;;;;;20.42;6.85;;;16.70;99.90;;;;;;5072696;28;20048;-71
2023/10/07 02:05:50;;;;;;;18.85;6.90;;;16.70;99.90;;;;;;5089702;28;20040;-72
2023/10/07 02:08:23;;;;;;;20.55;6.10;;;16.70;99.90;;;;;;5097690;28;20053;-72
2023/10/07 02:10:57;;;;;;;16.67;6.40;;;16.80;99.90;;;;;;5100582;28;20039;-71
2023/10/07 02:13:23;;;;;;;16.80;6.03;;;16.70;99.90;;;;;;5090614;28;20070;-71
2023/10/07 02:15:51;;;;;;;13.25;5.97;;;16.70;99.90;;;;;;5088344;28;20050;-71
2023/10/07 02:18:18;;;;;;;19.02;6.03;;;16.80;99.90;;;;;;5112817;28;20046;-74
2023/10/07 02:21:06;;;;;;;19.08;5.97;;;16.80;99.90;;;;;;5111418;28;20397;-72
2023/10/07 02:23:45;;;;;;;19.85;6.25;;;16.80;99.90;;;;;;5107147;28;20032;-72
2023/10/07 02:26:19;;;;;;;17.40;5.70;;;16.80;99.90;;;;;;5078737;28;20093;-72
2023/10/07 02:28:46;;;;;;;21.25;6.63;;;16.80;99.90;;;;;;5117848;28;20042;-72
2023/10/07 02:31:20;;;;;;;19.88;6.43;;;16.90;99.90;;;;;;5082475;28;20528;-72
2023/10/07 02:33:51;;;;;;;22.60;6.43;;;16.90;99.90;;;;;;5079964;28;20039;-72
2023/10/07 02:36:36;;;;;;;16.70;7.05;;;16.90;99.90;;;;;;5114199;28;20044;-72
2023/10/07 02:39:18;;;;;;;18.40;6.35;;;16.90;99.90;;;;;;5083806;28;20444;-72
2023/10/07 02:41:47;;;;;;;16.70;6.82;;;16.90;99.90;;;;;;5097992;28;20490;-72
2023/10/07 02:44:25;;;;;;;19.98;6.30;;;16.90;99.90;;;;;;5079986;28;20078;-72
2023/10/07 02:46:54;;;;;;;21.98;6.55;;;16.90;99.90;;;;;;5106101;28;20035;-72
2023/10/07 02:49:21;;;;;;;18.98;6.75;;;16.90;99.90;;;;;;5081229;28;20051;-72
2023/10/07 02:51:55;;;;;;;16.67;6.95;;;16.90;99.90;;;;;;5080506;28;20130;-72
2023/10/07 02:54:21;;;;;;;21.98;6.50;;;16.80;99.90;;;;;;5100535;28;20048;-72
2023/10/07 02:56:54;;;;;;;20.20;7.10;;;16.90;99.90;;;;;;5084827;28;20040;-72
2023/10/07 02:59:27;;;;;;;21.95;7.00;;;16.90;99.90;;;;;;5099884;28;20051;-72
2023/10/07 03:05:30;;;;;;;16.92;6.60;;;16.90;99.90;;;;;;5049907;28;20036;-72
2023/10/07 03:07:49;;;;;;;;;;;17.00;99.90;;;;;;5036020;28;20037;-72
2023/10/07 03:10:18;;;;;;;19.13;6.80;;;16.90;99.90;;;;;;5071827;28;20270;-72
2023/10/07 03:12:48;;;;;;;16.20;6.68;;;16.90;99.90;;;;;;5081117;28;20432;-72
2023/10/07 03:15:28;;;;;;;19.10;6.97;;;17.00;99.90;;;;;;5078881;28;20048;-72
2023/10/07 03:17:54;;;;;;;16.00;7.15;;;16.90;99.90;;;;;;5075406;28;20097;-72
2023/10/07 03:28:17;;;;;;;17.75;6.57;;;17.00;99.90;;;;;;5106741;28;20101;-72
2023/10/07 03:30:51;;;;;;;18.35;6.65;;;17.00;99.90;;;;;;5103131;28;20039;-72
2023/10/07 03:33:32;;;;;;;20.17;7.30;;;17.00;99.90;;;;;;5095408;28;20039;-72
2023/10/07 03:38:25;;;;;;;18.48;6.53;;;17.00;99.90;;;;;;5091967;28;19920;-72
2023/10/07 03:40:55;;;;;;;13.18;6.20;;;16.90;99.90;;;;;;5076672;28;20644;-72
2023/10/07 03:43:28;;;;;;;20.20;7.28;;;17.00;99.90;;;;;;5078652;28;20079;-72
2023/10/07 03:45:57;;;;;;;17.48;7.47;;;17.00;99.90;;;;;;5107636;28;20596;-72
2023/10/07 03:48:23;;;;;;;19.13;6.65;;;17.00;99.90;;;;;;5086953;28;20044;-72
2023/10/07 03:50:59;;;;;;;14.45;6.70;;;17.00;99.90;;;;;;5095822;28;20113;-72
2023/10/07 03:53:46;;;;;;;15.23;6.43;;;16.90;99.90;;;;;;5088759;28;20493;-72
2023/10/07 03:56:14;;;;;;;20.27;7.05;;;16.90;99.90;;;;;;5102941;28;20051;-72
2023/10/07 03:58:43;;;;;;;16.85;6.68;;;16.90;99.90;;;;;;5075529;28;20665;-71
2023/10/07 04:01:22;;;;;;;18.23;6.60;;;16.90;99.90;;;;;;5101942;28;20043;-72
2023/10/07 04:03:49;;;;;;;21.38;6.45;;;16.90;99.90;;;;;;5099037;28;20165;-72
2023/10/07 04:06:27;;;;;;;20.27;7.05;;;16.90;99.90;;;;;;5095183;28;20035;-72
2023/10/07 04:08:56;;;;;;;16.67;6.80;;;16.90;99.90;;;;;;5101573;28;20078;-71
2023/10/07 04:11:26;;;;;;;19.80;6.45;;;16.90;99.90;;;;;;5078624;28;20044;-71
2023/10/07 04:13:56;;;;;;;17.77;7.20;;;16.90;99.90;;;;;;5088860;28;20118;-71
2023/10/07 04:16:27;;;;;;;19.83;6.65;;;16.90;99.90;;;;;;5077811;28;20185;-71
2023/10/07 04:19:09;;;;;;;22.15;7.25;;;16.90;99.90;;;;;;5086306;28;20051;-72
2023/10/07 04:21:39;;;;;;;21.27;7.22;;;16.90;99.90;;;;;;5082794;28;20036;-71
2023/10/07 04:24:09;;;;;;;19.35;7.03;;;17.00;99.90;;;;;;5100470;28;20040;-72
2023/10/07 04:26:39;;;;;;;25.73;7.22;;;16.90;99.90;;;;;;5084040;28;20047;-71
2023/10/07 04:29:16;;;;;;;22.88;7.95;;;17.00;99.90;;;;;;5090875;28;20111;-72
2023/10/07 04:31:52;;;;;;;23.92;7.68;;;17.00;99.90;;;;;;5110126;28;20042;-72
2023/10/07 04:34:18;;;;;;;18.77;7.18;;;17.00;99.90;;;;;;5102866;28;20050;-72
2023/10/07 04:37:47;;;;;;;21.52;7.45;;;16.90;99.90;;;;;;5104159;28;20074;-72
2023/10/07 04:39:38;;;;;;;20.05;7.03;;;16.90;99.90;;;;;;5080299;28;20755;-72
2023/10/07 04:42:07;;;;;;;24.48;8.13;;;16.90;99.90;;;;;;5077479;28;20100;-72
2023/10/07 04:49:59;;;;;;;24.10;7.05;;;17.00;99.90;;;;;;5072819;28;20048;-72
2023/10/07 04:52:27;;;;;;;18.00;7.25;;;16.90;99.90;;;;;;5083682;28;20039;-72
2023/10/07 04:54:53;;;;;;;17.63;7.18;;;17.00;99.90;;;;;;5091846;28;20405;-72
2023/10/07 04:57:39;;;;;;;20.92;6.88;;;17.00;99.90;;;;;;5089896;28;21131;-72
2023/10/07 05:00:08;;;;;;;21.55;7.70;;;16.90;99.90;;;;;;5090269;28;20052;-72
2023/10/07 05:02:34;;;;;;;25.23;7.13;;;17.00;99.90;;;;;;5080924;28;20040;-72
2023/10/07 05:05:06;;;;;;;18.42;6.60;;;17.00;99.90;;;;;;5071297;28;20080;-72
2023/10/07 05:07:31;;;;;;;;;;;17.00;99.90;;;;;;5105101;28;20035;-72
2023/10/07 05:09:57;;;;;;;20.55;7.07;;;17.00;99.90;;;;;;5104152;28;19915;-71
2023/10/07 05:12:22;;;;;;;16.90;7.10;;;17.00;99.90;;;;;;5091360;28;20092;-71
2023/10/07 05:14:49;;;;;;;18.05;6.85;;;17.00;99.90;;;;;;5088180;28;20497;-72
2023/10/07 05:17:16;;;;;;;22.60;6.88;;;17.00;99.90;;;;;;5067463;28;20079;-72
2023/10/07 05:19:42;;;;;;;16.58;6.43;;;17.10;99.90;;;;;;5078941;28;20103;-72
2023/10/07 05:22:18;;;;;;;20.25;7.07;;;17.00;99.90;;;;;;5103222;28;20174;-72
2023/10/07 05:24:51;;;;;;;18.02;6.40;;;17.00;99.90;;;;;;5071925;28;20437;-72
2023/10/07 05:27:18;;;;;;;19.55;6.65;;;17.00;99.90;;;;;;5073058;28;20036;-72
2023/10/07 05:29:46;;;;;;;22.05;7.47;;;17.00;99.90;;;;;;5078587;28;20084;-72
2023/10/07 05:32:13;;;;;;;19.70;6.72;;;17.10;99.90;;;;;;5089743;28;20054;-72
2023/10/07 05:34:38;;;;;;;16.40;7.25;;;17.00;99.90;;;;;;5095831;28;20036;-72
2023/10/07 05:37:11;;;;;;;22.88;7.20;;;17.10;99.90;;;;;;5085928;28;20044;-72
2023/10/07 05:39:38;;;;;;;16.13;7.05;;;17.10;99.90;;;;;;5085677;28;20047;-72
2023/10/07 05:42:05;;;;;;;19.13;6.97;;;17.00;99.90;;;;;;5086165;28;20184;-72
2023/10/07 05:44:31;;;;;;;19.88;6.93;;;17.10;99.90;;;;;;5099038;28;20531;-72
2023/10/07 05:46:59;;;;;;;20.90;7.10;;;17.10;99.90;;;;;;5097047;28;20155;-72
2023/10/07 05:49:24;;;;;;;19.92;7.30;;;17.10;99.90;;;;;;5087783;28;20047;-72
2023/10/07 05:51:50;;;;;;;19.20;6.72;;;17.10;99.90;;;;;;5085757;28;20055;-72
2023/10/07 05:54:18;;;;;;;19.88;7.22;;;17.00;99.90;;;;;;5080132;28;20036;-72
2023/10/07 05:56:47;;;;;;;22.85;7.85;;;17.00;99.90;;;;;;5084897;28;20039;-71
2023/10/07 05:59:14;;;;;;;18.70;6.80;;;17.10;99.90;;;;;;5099698;28;20478;-71
2023/10/07 06:01:39;;;;;;;27.73;7.25;;;17.10;99.90;;;;;;5082918;28;20477;-71
2023/10/07 06:04:07;;;;;;;20.98;6.72;;;17.00;99.90;;;;;;5079691;28;20036;-72
2023/10/07 06:06:33;;;;;;;20.33;7.03;;;17.00;99.90;;;;;;5087543;28;20042;-71
2023/10/07 06:09:03;;;;;;;24.23;7.53;;;17.00;99.90;;;;;;5083956;28;20143;-71
2023/10/07 06:11:34;;;;;;;16.60;7.13;;;17.00;99.90;;;;;;5078190;28;20114;-71
2023/10/07 06:14:01;;;;;;;16.85;6.88;;;17.00;99.90;;;;;;5083150;28;21065;-71
2023/10/07 06:16:29;;;;;;;20.38;7.47;;;17.00;99.90;;;;;;5083510;28;20047;-71
2023/10/07 06:18:56;;;;;;;20.33;7.10;;;17.00;99.90;;;;;;5082090;28;20035;-71
2023/10/07 06:21:34;;;;;;;21.50;6.93;;;17.00;99.90;;;;;;5078698;28;20741;-71
2023/10/07 06:24:07;;;;;;;20.10;6.38;;;17.00;99.90;;;;;;5080879;28;20043;-71
2023/10/07 06:26:33;;;;;;;19.90;6.70;;;17.00;99.90;;;;;;5085191;28;20123;-71
2023/10/07 06:29:06;;;;;;;23.30;7.38;;;17.00;99.90;;;;;;5083300;28;20329;-71
2023/10/07 06:31:32;;;;;;;15.57;6.55;;;17.00;99.90;;;;;;5087881;28;20062;-71
2023/10/07 06:34:03;;;;;;;20.33;6.95;;;17.00;99.90;;;;;;5082512;28;20421;-72
2023/10/07 06:36:31;;;;;;;20.35;6.32;;;17.00;99.90;;;;;;5088456;28;20094;-71
2023/10/07 06:39:01;;;;;;;19.95;6.95;;;17.00;99.90;;;;;;5080744;28;20093;-72
2023/10/07 06:41:30;;;;;;;21.93;7.53;;;16.90;99.90;;;;;;5099543;28;20400;-71
2023/10/07 06:44:02;;;;;;;15.88;7.03;;;17.00;99.90;;;;;;5081776;28;20070;-71
2023/10/07 06:46:29;;;;;;;31.35;7.82;;;17.00;99.90;;;;;;5083474;28;20905;-72
2023/10/07 06:48:55;;;;;;;21.08;7.05;;;17.00;99.90;;;;;;5103946;28;20052;-71
2023/10/07 06:51:23;;;;;;;25.00;7.15;;;16.90;99.90;;;;;;5086565;28;20470;-71
2023/10/07 06:53:49;;;;;;;17.80;6.57;;;16.90;99.90;;;;;;5086803;28;20044;-76
2023/10/07 06:56:22;;;;;;;20.20;6.88;;;17.00;99.90;;;;;;5086260;28;20065;-71
2023/10/07 06:58:54;;;;;;;18.42;6.88;;;16.90;99.90;;;;;;5104023;28;20438;-72
2023/10/07 07:04:11;;;;;;;19.83;6.90;;;17.00;99.90;;;;;;5098757;28;20131;-71
2023/10/07 07:06:44;;;;;;;19.83;7.25;;;17.00;99.90;;;;;;5081295;28;20098;-71
2023/10/07 07:12:03;;;;;;;19.77;7.40;;;17.00;99.90;;;;;;5082731;28;20101;-71
2023/10/07 07:14:30;;;;;;;20.23;7.03;;;17.00;99.90;;;;;;5074387;28;20176;-76
2023/10/07 07:17:28;;;;;;;19.27;7.60;;;17.00;99.90;;;;;;5079361;28;20113;-71
2023/10/07 07:19:44;;;;;;;21.38;7.28;;;17.00;99.90;;;;;;5098896;28;20107;-72
2023/10/07 07:22:11;;;;;;;17.85;7.90;;;17.10;99.90;;;;;;5108883;28;20492;-72
2023/10/07 07:24:41;;;;;;;18.63;8.05;;;17.10;99.90;;;;;;5077306;28;20477;-72
2023/10/07 07:27:08;;;;;;;24.20;7.43;;;17.20;99.90;;;;;;5094968;28;20092;-72
2023/10/07 07:29:34;;;;;;;18.83;8.13;;;17.20;99.90;;;;;;5085914;28;20039;-72
2023/10/07 07:32:04;;;;;;;19.80;7.93;;;17.20;99.90;;;;;;5092573;28;20374;-72
2023/10/07 07:34:36;;;;;;;18.05;7.70;;;17.30;99.90;;;;;;5074748;28;20040;-71
2023/10/07 07:37:04;;;;;;;19.98;7.93;;;17.40;99.90;;;;;;5079456;28;20043;-72
2023/10/07 07:39:30;;;;;;;20.73;7.85;;;17.50;99.90;;;;;;5090867;28;20047;-72
2023/10/07 07:42:15;;;;;;;17.50;7.85;;;17.70;99.90;;;;;;5097687;28;20036;-71
2023/10/07 07:44:55;;;;;;;17.73;7.22;;;17.70;99.90;;;;;;5080135;28;20508;-72
2023/10/07 07:47:22;;;;;;;16.48;7.05;;;17.70;99.90;;;;;;5092716;28;20118;-72
2023/10/07 07:49:48;;;;;;;14.88;7.20;;;17.80;99.90;;;;;;5100848;28;20035;-72
2023/10/07 07:52:15;;;;;;;20.17;7.25;;;17.90;99.90;;;;;;5077043;28;20031;-72
2023/10/07 07:54:44;;;;;;;24.17;7.30;;;18.00;99.90;;;;;;5081313;28;20080;-71
2023/10/07 07:57:12;;;;;;;19.60;6.93;;;18.10;99.90;;;;;;5094519;28;20081;-71
2023/10/07 07:59:38;;;;;;;15.63;6.47;;;18.10;99.90;;;;;;5091575;28;20402;-72
2023/10/07 08:02:15;;;;;;;19.52;6.70;;;18.10;99.90;;;;;;5090177;28;20040;-72
2023/10/07 08:04:50;;;;;;;18.88;6.68;;;18.10;99.90;;;;;;5075324;28;20466;-71
2023/10/07 08:07:24;;;;;;;16.48;6.60;;;18.20;99.90;;;;;;5092929;28;20063;-71
2023/10/07 08:10:03;;;;;;;15.77;6.53;;;18.20;99.90;;;;;;5073684;28;20040;-71
2023/10/07 08:12:35;;;;;;;17.95;6.40;;;18.20;99.90;;;;;;5098259;28;20039;-71
2023/10/07 08:17:35;;;;;;;14.40;6.53;;;18.40;99.90;;;;;;5087163;28;20054;-71
2023/10/07 08:20:12;;;;;;;17.10;6.10;;;18.50;99.90;;;;;;5113390;28;20523;-71
2023/10/07 08:22:45;;;;;;;16.88;6.28;;;18.60;99.90;;;;;;5086955;28;20128;-72
2023/10/07 08:25:15;;;;;;;12.80;5.93;;;18.70;99.90;;;;;;5082797;28;20289;-73
2023/10/07 08:27:44;;;;;;;15.70;6.20;;;18.80;99.90;;;;;;5102257;28;20036;-69
2023/10/07 08:30:14;;;;;;;18.25;5.80;;;18.80;99.90;;;;;;5084932;28;20479;-71
2023/10/07 08:32:41;;;;;;;16.15;5.45;;;18.70;99.90;;;;;;5111161;28;20087;-71
2023/10/07 08:35:18;;;;;;;13.25;5.43;;;18.70;99.90;;;;;;5102641;28;20096;-71
2023/10/07 08:37:47;;;;;;;16.58;5.93;;;18.70;99.90;;;;;;5077315;28;20525;-72
2023/10/07 08:40:28;;;;;;;14.18;5.40;;;18.80;99.90;;;;;;5070277;28;20886;-70
2023/10/07 08:42:56;;;;;;;20.02;5.93;;;18.90;99.90;;;;;;5087157;28;20109;-71
2023/10/07 08:45:28;;;;;;;11.20;5.25;;;18.80;99.90;;;;;;5096626;28;20545;-71
2023/10/07 08:48:08;;;;;;;14.57;5.32;;;18.90;99.90;;;;;;5094205;28;20068;-71
2023/10/07 08:50:49;;;;;;;17.03;5.53;;;18.90;99.90;;;;;;5092535;28;20072;-70
2023/10/07 08:53:15;;;;;;;18.67;5.45;;;19.00;99.90;;;;;;5072498;28;20044;-71
2023/10/07 08:55:43;;;;;;;10.43;4.95;;;19.00;99.90;;;;;;5097836;28;20092;-70
2023/10/07 08:58:11;;;;;;;20.27;5.60;;;19.10;99.90;;;;;;5090892;28;20050;-70
2023/10/07 09:00:45;;;;;;;15.00;5.70;;;19.00;99.90;;;;;;5097616;28;20634;-70
2023/10/07 09:03:15;;;;;;;14.50;5.35;;;18.90;99.90;;;;;;5094318;28;20040;-70
2023/10/07 09:05:42;;;;;;;18.92;5.80;;;18.80;99.90;;;;;;5112734;28;20038;-70
2023/10/07 09:08:11;;;;;;;12.63;5.22;;;18.80;99.90;;;;;;5083246;28;20036;-70
2023/10/07 09:10:47;;;;;;;14.63;5.80;;;18.80;99.90;;;;;;5083500;28;20047;-70
2023/10/07 09:13:27;;;;;;;15.45;5.80;;;18.80;99.90;;;;;;5092613;28;20035;-71
2023/10/07 09:15:59;;;;;;;14.20;5.60;;;18.90;99.90;;;;;;5075059;28;20039;-71
2023/10/07 09:18:37;;;;;;;12.90;5.60;;;18.90;99.90;;;;;;5096971;28;20115;-71
2023/10/07 09:21:09;;;;;;;14.77;5.22;;;19.00;99.90;;;;;;5100678;28;20075;-70
2023/10/07 09:23:43;;;;;;;13.45;5.20;;;19.20;99.90;;;;;;5072949;28;20417;-70
2023/10/07 09:26:43;;;;;;;15.13;5.40;;;19.30;99.90;;;;;;5091996;28;20036;-70
2023/10/07 09:29:15;;;;;;;12.35;5.28;;;19.30;99.90;;;;;;5082748;28;20040;-70
2023/10/07 09:31:43;;;;;;;12.02;4.97;;;19.40;99.90;;;;;;5074923;28;20421;-70
2023/10/07 09:34:29;;;;;;;9.68;4.72;;;19.50;99.90;;;;;;5084188;28;20040;-70
2023/10/07 09:36:57;;;;;;;11.90;4.32;;;19.70;99.90;;;;;;5084874;28;20039;-70
2023/10/07 09:39:34;;;;;;;12.02;4.45;;;19.90;99.90;;;;;;5107462;28;20097;-70
2023/10/07 09:42:04;;;;;;;14.70;4.60;;;20.00;99.90;;;;;;5086145;28;20076;-70
2023/10/07 09:44:37;;;;;;;13.50;4.70;;;20.10;99.90;;;;;;5093365;28;20512;-71
2023/10/07 09:47:09;;;;;;;17.77;4.40;;;20.10;99.90;;;;;;5107100;28;20036;-68
2023/10/07 09:49:36;;;;;;;13.43;4.28;;;20.30;99.90;;;;;;5074290;28;20058;-70
2023/10/07 09:52:16;;;;;;;11.05;4.43;;;20.40;99.90;;;;;;5100390;28;20075;-69
2023/10/07 09:55:21;;;;;;;11.70;4.43;;;20.40;99.90;;;;;;5086682;28;20409;-69
2023/10/07 09:58:17;;;;;;;11.38;4.20;;;20.30;99.90;;;;;;5080883;28;20039;-69
2023/10/07 10:01:07;;;;;;;12.45;4.43;;;20.20;99.90;;;;;;5083912;28;20047;-70
2023/10/07 10:03:59;;;;;;;9.13;4.07;;;20.00;99.90;;;;;;5092222;28;20050;-71
2023/10/07 10:06:39;;;;;;;17.35;4.32;;;19.90;99.90;;;;;;5096048;28;20289;-70
2023/10/07 10:09:09;;;;;;;10.23;3.97;;;19.90;99.90;;;;;;5099908;28;20152;-70
2023/10/07 10:16:51;;;;;;;11.68;4.60;;;19.90;99.90;;;;;;5102046;28;20547;-68
2023/10/07 10:19:44;;;;;;;13.05;4.03;;;19.90;99.90;;;;;;5079390;28;20094;-69
2023/10/07 10:22:12;;;;;;;13.63;5.10;;;19.80;99.90;;;;;;5079642;28;20173;-70
2023/10/07 10:24:42;;;;;;;11.98;4.18;;;19.80;99.90;;;;;;5087626;28;20039;-70
2023/10/07 10:27:13;;;;;;;10.02;4.07;;;19.80;99.90;;;;;;5086573;28;20050;-70
2023/10/07 10:30:04;;;;;;;13.48;4.75;;;19.70;99.90;;;;;;5113417;28;20043;-71
2023/10/07 10:32:34;;;;;;;11.52;4.18;;;19.70;99.90;;;;;;5090517;28;20044;-71
2023/10/07 10:35:03;;;;;;;11.50;4.35;;;19.70;99.90;;;;;;5081464;28;20513;-70
2023/10/07 10:37:30;;;;;;;14.50;4.18;;;19.80;99.90;;;;;;5096296;28;20039;-70
2023/10/07 10:40:14;;;;;;;13.18;4.40;;;19.80;99.90;;;;;;5086910;28;20127;-70
2023/10/07 10:42:41;;;;;;;15.90;4.88;;;19.90;99.90;;;;;;5091374;28;20035;-71
2023/10/07 10:45:15;;;;;;;17.70;4.60;;;20.00;99.90;;;;;;5086637;28;20040;-71
2023/10/07 10:47:45;;;;;;;14.10;4.55;;;20.00;99.90;;;;;;5094730;28;20088;-71
2023/10/07 10:50:17;;;;;;;15.93;4.68;;;20.10;99.90;;;;;;5084152;28;20572;-73
2023/10/07 10:52:56;;;;;;;11.10;4.35;;;20.10;99.90;;;;;;5093896;28;20074;-72
2023/10/07 10:55:24;;;;;;;16.23;4.20;;;20.00;99.90;;;;;;5084216;28;20044;-72
2023/10/07 10:57:53;;;;;;;12.15;4.57;;;20.00;99.90;;;;;;5104535;28;20135;-72
2023/10/07 11:00:21;;;;;;;11.63;4.43;;;19.90;99.90;;;;;;5088449;28;20038;-73
2023/10/07 11:02:49;;;;;;;12.90;4.35;;;20.00;99.90;;;;;;5093806;28;20032;-73
2023/10/07 11:05:15;;;;;;;14.65;4.60;;;19.90;99.90;;;;;;5075073;28;20047;-72
2023/10/07 11:07:43;;;;;;;16.40;4.43;;;19.80;99.90;;;;;;5088461;28;20047;-72
2023/10/07 11:10:20;;;;;;;12.90;4.55;;;19.80;99.90;;;;;;5100654;28;20561;-72
2023/10/07 11:12:51;;;;;;;15.35;4.82;;;19.80;99.90;;;;;;5087157;28;20070;-73
2023/10/07 11:15:24;;;;;;;13.95;4.88;;;19.80;99.90;;;;;;5085941;28;20052;-72
2023/10/07 11:17:58;;;;;;;13.60;4.90;;;19.80;99.90;;;;;;5090033;28;20058;-72
2023/10/07 11:20:30;;;;;;;15.93;4.97;;;19.80;99.90;;;;;;5086223;28;20435;-71
2023/10/07 11:22:57;;;;;;;16.33;4.70;;;19.80;99.90;;;;;;5099108;28;20051;-72
2023/10/07 11:25:24;;;;;;;14.13;5.30;;;19.90;99.90;;;;;;5085997;28;20489;-71
2023/10/07 11:27:51;;;;;;;14.65;5.38;;;19.80;99.90;;;;;;5084183;28;20513;-72
2023/10/07 11:30:18;;;;;;;12.80;4.57;;;19.80;99.90;;;;;;5098182;28;20055;-71
2023/10/07 11:32:43;;;;;;;13.95;4.80;;;19.90;99.90;;;;;;5084013;28;20051;-71
2023/10/07 11:35:17;;;;;;;16.48;5.10;;;19.90;99.90;;;;;;5086031;28;20425;-71
2023/10/07 11:38:02;;;;;;;14.98;4.70;;;19.80;99.90;;;;;;5099788;28;20501;-71
2023/10/07 11:40:28;;;;;;;18.73;5.20;;;19.90;99.90;;;;;;5100562;28;20040;-70
2023/10/07 11:42:58;;;;;;;13.68;5.13;;;19.90;99.90;;;;;;5075058;28;20052;-72
2023/10/07 11:45:26;;;;;;;13.70;4.63;;;20.10;99.90;;;;;;5086122;28;20047;-72
2023/10/07 11:47:56;;;;;;;14.27;5.00;;;20.10;99.90;;;;;;5092175;28;20409;-71
2023/10/07 11:50:23;;;;;;;16.63;4.95;;;20.10;99.90;;;;;;5062620;28;20055;-71
2023/10/07 11:52:48;;;;;;;12.05;4.97;;;20.10;99.90;;;;;;5085333;22;20052;-69
2023/10/07 11:55:17;;;;;;;17.05;5.50;;;20.10;99.90;;;;;;5015800;28;20042;-68
2023/10/07 11:57:43;;;;;;;16.25;5.38;;;20.10;99.90;;;;;;5014800;28;20156;-69
2023/10/07 12:00:53;;;;;;;15.35;4.80;;;20.00;99.90;;;;;;5002530;28;20168;-68
2023/10/07 12:02:57;;;;;;;12.88;5.20;;;20.10;99.90;;;;;;4998938;28;20506;-69
2023/10/07 12:05:27;;;;;;;15.35;5.15;;;20.10;99.90;;;;;;5008921;28;20038;-68
2023/10/07 12:08:01;;;;;;;10.73;5.10;;;20.10;99.90;;;;;;5032983;28;20128;-68
2023/10/07 12:10:33;;;;;;;13.07;5.20;;;20.10;99.90;;;;;;5009872;28;20173;-69
2023/10/07 12:13:03;;;;;;;12.10;4.60;;;20.10;99.90;;;;;;5023460;28;20052;-68
2023/10/07 12:15:29;;;;;;;11.70;4.93;;;20.10;99.90;;;;;;5028429;28;20041;-68
2023/10/07 12:17:55;;;;;;;13.85;5.70;;;20.10;99.90;;;;;;5018519;28;20065;-69
2023/10/07 12:20:21;;;;;;;12.88;4.75;;;20.30;99.90;;;;;;5001553;28;20042;-68
2023/10/07 12:22:47;;;;;;;14.05;4.95;;;20.40;99.90;;;;;;5023664;28;20487;-68
2023/10/07 12:25:16;;;;;;;12.32;4.88;;;20.50;99.90;;;;;;5022083;28;20049;-69
2023/10/07 12:27:45;;;;;;;10.73;5.13;;;20.70;99.90;;;;;;5003328;28;20081;-69
2023/10/07 12:30:12;;;;;;;14.25;5.60;;;20.80;99.90;;;;;;5022019;28;20042;-69
2023/10/07 12:32:39;;;;;;;10.95;5.30;;;20.70;99.90;;;;;;5003291;28;20541;-68
2023/10/07 12:35:05;;;;;;;13.45;5.20;;;20.60;99.90;;;;;;5002104;28;20046;-68
2023/10/07 12:37:31;;;;;;;16.77;5.63;;;20.60;99.90;;;;;;5028268;28;20048;-68
2023/10/07 12:39:57;;;;;;;12.15;4.88;;;20.60;99.90;;;;;;5005338;28;20038;-69
2023/10/07 12:42:25;;;;;;;15.32;5.10;;;20.60;99.90;;;;;;5027684;28;20491;-68
2023/10/07 12:44:51;;;;;;;15.23;5.38;;;20.70;99.90;;;;;;5025074;28;20037;-68
2023/10/07 12:47:17;;;;;;;17.17;5.72;;;20.60;99.90;;;;;;5031901;28;20047;-69
2023/10/07 12:49:45;;;;;;;16.92;5.95;;;20.50;99.90;;;;;;5032423;28;20046;-69
2023/10/07 12:52:11;;;;;;;10.73;4.60;;;20.40;99.90;;;;;;5023072;28;20040;-69
2023/10/07 12:54:44;;;;;;;15.18;5.03;;;20.50;99.90;;;;;;4998541;28;20045;-69
2023/10/07 12:57:15;;;;;;;15.25;5.35;;;20.40;99.90;;;;;;4998908;28;20041;-68
2023/10/07 12:59:47;;;;;;;15.43;5.20;;;20.30;99.90;;;;;;5023367;28;20451;-68
2023/10/07 13:02:17;;;;;;;15.38;5.38;;;20.30;99.90;;;;;;4999105;28;20046;-68
2023/10/07 13:04:44;;;;;;;16.87;5.07;;;20.30;99.90;;;;;;5018255;28;20037;-67
2023/10/07 13:07:10;;;;;;;10.18;4.68;;;20.20;99.90;;;;;;5016765;28;20038;-68
2023/10/07 13:09:40;;;;;;;16.05;5.93;;;20.10;99.90;;;;;;5023146;28;20048;-68
2023/10/07 13:12:12;;;;;;;16.55;5.72;;;20.00;99.90;;;;;;5009354;28;20494;-68
2023/10/07 13:14:41;;;;;;;12.57;5.15;;;20.10;99.90;;;;;;5000168;28;20077;-69
2023/10/07 13:17:07;;;;;;;13.77;5.25;;;20.10;99.90;;;;;;5017560;28;20087;-69
2023/10/07 13:19:36;;;;;;;15.27;5.18;;;20.00;99.90;;;;;;5032906;28;20076;-69
2023/10/07 13:22:05;;;;;;;12.10;5.00;;;20.00;99.90;;;;;;5007711;28;20384;-69
2023/10/07 13:24:31;;;;;;;17.83;5.53;;;20.10;99.90;;;;;;5020174;28;20095;-68
2023/10/07 13:26:56;;;;;;;13.10;4.82;;;20.20;99.90;;;;;;5019791;28;20037;-68
2023/10/07 13:29:23;;;;;;;13.80;5.00;;;20.20;99.90;;;;;;5031425;28;20548;-69
2023/10/07 13:31:48;;;;;;;17.00;5.78;;;20.30;99.90;;;;;;5031894;28;20087;-69
2023/10/07 13:34:16;;;;;;;12.02;5.00;;;20.30;99.90;;;;;;5008805;28;20049;-68
2023/10/07 13:36:43;;;;;;;13.50;5.13;;;20.40;99.90;;;;;;5025672;28;20041;-68
2023/10/07 13:39:17;;;;;;;15.65;4.90;;;20.30;99.90;;;;;;5002219;28;20121;-68
2023/10/07 13:41:47;;;;;;;16.20;5.88;;;20.30;99.90;;;;;;5007089;28;20037;-69
2023/10/07 13:44:17;;;;;;;14.48;5.45;;;20.20;99.90;;;;;;5021153;28;20048;-69